Historique des mesures à Cassis (13260), France
Quotidien Résumé Janvier 21, 2018 Unités:  US    Métrique   Métrique/US
« Précédent (Jour)
Suivant (Jour) »
Quotidien Hebdomadaire Mensuel Annuel Période au choix
  Maximum: Minimum: Moyenne:
Température: 32 °F 55.9 °F 57.2 °F
Point de rosée: 32 °F 36.3 °F 43.5 °F
Humidité: Humidity % 43 % 58 %
Vitesse du vent: WindSpeedKMH mph 9.7 mph 23.9 mph
Rafales: WindSpeedGustKMH mph - -
Vent:- - WNW
Pression: 0 in 29.7 in -
Précipitations: 0 in    
Historical Graphs
 
 
Mesures pour : Janvier 21, 2018
Heure Temperature Point de rosée Pression Vent Vitesse du vent Rafales Humidité Pluie (par heure) Conditions
32 °F 32 °F 0 in Calm     Humidity % 0 in SoftwareType W/m2
00:12 55.9 °F 49.8 °F 29.7 in West 25.9 mph 31.4 mph 80 % 0 in open2300-1.11 W/m2
01:12 56.1 °F 50 °F 29.7 in West 31.4 mph 31.7 mph 80 % 0 in open2300-1.11 W/m2
02:12 57 °F 50.2 °F 29.7 in West 33.8 mph 38.9 mph 78 % 0 in open2300-1.11 W/m2
03:12 57 °F 50.2 °F 29.7 in NW 13.0 mph 24.5 mph 78 % 0 in open2300-1.11 W/m2
04:12 57 °F 49.8 °F 29.7 in WNW 23.3 mph 38.1 mph 77 % 0 in open2300-1.11 W/m2
05:12 57 °F 48.7 °F 29.7 in WNW 32.8 mph 33.1 mph 74 % 0 in open2300-1.11 W/m2
06:12 57.9 °F 44.2 °F 29.7 in NNW 10.5 mph 21.6 mph 60 % 0 in open2300-1.11 W/m2
07:12 57.9 °F 42.3 °F 29.7 in WNW 36.7 mph 36.7 mph 56 % 0 in open2300-1.11 W/m2
08:12 57 °F 41.9 °F 29.7 in NW 17.2 mph 24.8 mph 57 % 0 in open2300-1.11 W/m2
10:12 57.9 °F 38.8 °F 29.8 in WNW 19.8 mph 19.8 mph 49 % 0 in open2300-1.11 W/m2
11:12 58.8 °F 36.3 °F 29.8 in NW 32.0 mph 33.8 mph 43 % 0 in open2300-1.11 W/m2
12:12 59.4 °F 37.9 °F 29.8 in NNW 31.7 mph 31.7 mph 45 % 0 in open2300-1.11 W/m2
13:12 59.9 °F 39.6 °F 29.8 in WNW 30.9 mph 30.9 mph 47 % 0 in open2300-1.11 W/m2
14:12 59.9 °F 40.1 °F 29.8 in WNW 28.5 mph 33.1 mph 48 % 0 in open2300-1.11 W/m2
15:12 59.9 °F 41.4 °F 29.8 in WNW 23.0 mph 31.7 mph 50 % 0 in open2300-1.11 W/m2
16:12 59.5 °F 41.4 °F 29.8 in WNW 36.4 mph 36.4 mph 51 % 0 in open2300-1.11 W/m2
17:12 58.8 °F 42.3 °F 29.8 in NNW 27.4 mph 27.4 mph 54 % 0 in open2300-1.11 W/m2
18:12 58.6 °F 43.3 °F 29.8 in West 22.7 mph 22.7 mph 57 % 0 in open2300-1.11 W/m2
19:12 59.4 °F 44.4 °F 29.8 in NW 14.8 mph 24.1 mph 58 % 0 in open2300-1.11 W/m2
20:12 59.2 °F 44.8 °F 29.9 in NW 24.5 mph 24.5 mph 59 % 0 in open2300-1.11 W/m2
21:12 59.5 °F 45.7 °F 29.9 in NNE 23.8 mph 23.8 mph 60 % 0 in open2300-1.11 W/m2
23:12 59.2 °F 46.2 °F 29.9 in NNW 9.7 mph 29.4 mph 62 % 0 in open2300-1.11 W/m2
Observations météo à CASSIS
WU-History script by Weather Underground - 1 mb